Time;durP1;ratioP1;P1;durP2;ratioP2;P2;SDS_P1;SDS_P2;PMS_P1;PMS_P2;Temp;Humidity;BMP_temperature;BMP_pressure;BME280_temperature;BME280_humidity;BME280_pressure;Samples;Min_cycle;Max_cycle;Signal;HPM_P1;HPM_P2
2022/08/11 11:33:00;;;;;;;;;3.00;3.00;;;;;;;;5162820;27;76987;-86
2022/08/11 11:35:26;;;;;;;;;5.20;5.00;;;;;;;;5143332;27;21385;-82
2022/08/11 11:37:52;;;;;;;;;4.50;4.50;;;;;;;;5147844;27;10273;-86
2022/08/11 11:40:22;;;;;;;;;4.40;4.40;;;;;;;;5139702;27;11613;-85
2022/08/11 11:42:48;;;;;;;;;5.20;3.40;;;;;;;;5134491;27;9013;-87
2022/08/11 11:45:15;;;;;;;;;4.20;4.20;;;;;;;;5136834;27;10635;-84
2022/08/11 11:47:41;;;;;;;;;4.00;4.00;;;;;;;;5137733;27;12822;-88
2022/08/11 11:50:07;;;;;;;;;3.50;3.50;;;;;;;;5143235;27;8911;-76
2022/08/11 11:52:33;;;;;;;;;4.00;4.00;;;;;;;;5142993;27;11418;-77
2022/08/11 11:54:59;;;;;;;;;6.25;6.25;;;;;;;;5140053;27;11716;-79
2022/08/11 12:02:57;;;;;;;;;4.25;4.00;;;;;;;;5145701;27;8786;-76
2022/08/11 12:05:23;;;;;;;;;3.75;3.75;;;;;;;;5144551;27;8783;-76
2022/08/11 12:10:32;;;;;;;;;5.00;5.00;;;;;;;;5144152;27;11340;-76
2022/08/11 12:15:46;;;;;;;;;5.50;5.50;;;;;;;;5142251;27;8775;-76
2022/08/11 12:18:11;;;;;;;;;4.75;4.25;;;;;;;;5146663;27;8807;-75
2022/08/11 12:20:38;;;;;;;;;4.00;4.00;;;;;;;;5144736;27;11313;-75
2022/08/11 12:28:32;;;;;;;;;9.25;9.25;;;;;;;;5132315;27;11348;-78
2022/08/11 12:30:58;;;;;;;;;6.25;6.25;;;;;;;;5135561;27;8830;-81
2022/08/11 12:33:23;;;;;;;;;5.67;5.67;;;;;;;;5136770;27;8799;-79
2022/08/11 12:35:52;;;;;;;;;7.67;7.67;;;;;;;;5134487;27;11606;-82
2022/08/11 12:38:19;;;;;;;;;5.25;5.25;;;;;;;;5135213;27;8779;-82
2022/08/11 12:46:22;;;;;;;;;5.00;5.00;;;;;;;;5120829;28;12317;-79
2022/08/11 12:54:20;;;;;;;;;9.00;7.75;;;;;;;;5120542;28;11338;-79
2022/08/11 13:05:05;;;;;;;;;6.50;6.50;;;;;;;;5121908;28;11354;-80
2022/08/11 13:07:32;;;;;;;;;6.75;5.25;;;;;;;;5121845;27;13031;-79
2022/08/11 13:09:57;;;;;;;;;7.75;7.75;;;;;;;;5121715;27;10649;-80
2022/08/11 13:15:09;;;;;;;;;10.25;10.25;;;;;;;;5118865;28;12338;-80
2022/08/11 13:17:35;;;;;;;;;6.50;5.75;;;;;;;;5121995;27;22807;-80
2022/08/11 13:20:01;;;;;;;;;5.25;5.25;;;;;;;;5121465;27;22707;-80
2022/08/11 13:22:27;;;;;;;;;7.00;6.00;;;;;;;;5119472;28;10465;-80
2022/08/11 13:24:54;;;;;;;;;7.25;7.25;;;;;;;;5119763;27;12749;-80
2022/08/11 13:27:20;;;;;;;;;6.75;6.75;;;;;;;;5122097;27;11064;-80
2022/08/11 13:29:46;;;;;;;;;4.33;4.33;;;;;;;;5121976;27;10502;-79
2022/08/11 13:32:13;;;;;;;;;5.25;4.00;;;;;;;;5121397;27;11606;-80
2022/08/11 13:34:41;;;;;;;;;7.75;7.00;;;;;;;;5119842;28;11740;-81
2022/08/11 13:37:07;;;;;;;;;7.75;7.00;;;;;;;;5117858;28;9986;-80
2022/08/11 13:39:34;;;;;;;;;8.50;8.50;;;;;;;;5121703;27;9697;-80
2022/08/11 13:42:01;;;;;;;;;6.50;6.00;;;;;;;;5121763;27;11380;-79
2022/08/11 13:44:28;;;;;;;;;4.00;4.00;;;;;;;;5120073;28;12089;-80
2022/08/11 13:46:59;;;;;;;;;5.00;5.00;;;;;;;;5121858;27;10711;-79
2022/08/11 13:49:25;;;;;;;;;3.50;3.50;;;;;;;;5118748;28;9620;-80
2022/08/11 13:51:51;;;;;;;;;4.00;4.00;;;;;;;;5121335;27;11565;-80
2022/08/11 13:54:30;;;;;;;;;4.00;4.00;;;;;;;;5118928;27;11465;-80
2022/08/11 13:57:05;;;;;;;;;3.25;3.25;;;;;;;;5121314;27;8856;-80
2022/08/11 13:59:31;;;;;;;;;5.75;5.00;;;;;;;;5118954;28;11449;-80
2022/08/11 14:02:03;;;;;;;;;5.67;5.00;;;;;;;;5120799;27;11811;-79
2022/08/11 14:04:32;;;;;;;;;4.00;4.00;;;;;;;;5120256;28;8809;-83
2022/08/11 14:06:59;;;;;;;;;5.50;4.75;;;;;;;;5120960;27;10800;-83
2022/08/11 14:09:29;;;;;;;;;5.00;4.00;;;;;;;;5118096;28;11885;-84
2022/08/11 14:14:46;;;;;;;;;4.00;4.00;;;;;;;;5120674;28;8767;-83
2022/08/11 14:17:12;;;;;;;;;5.00;5.00;;;;;;;;5121474;27;10007;-82
2022/08/11 14:19:39;;;;;;;;;6.75;5.00;;;;;;;;5121062;27;8793;-83
2022/08/11 14:22:11;;;;;;;;;4.50;4.50;;;;;;;;5121704;27;10270;-84
2022/08/11 14:24:37;;;;;;;;;3.25;3.25;;;;;;;;5120005;27;11397;-83
2022/08/11 14:27:04;;;;;;;;;4.75;4.75;;;;;;;;5119512;28;11940;-81
2022/08/11 14:29:31;;;;;;;;;4.50;3.75;;;;;;;;5120552;27;10381;-81
2022/08/11 14:32:03;;;;;;;;;4.00;4.00;;;;;;;;5118606;27;9781;-84
2022/08/11 14:34:30;;;;;;;;;5.00;4.50;;;;;;;;5119265;28;12798;-83
2022/08/11 14:36:57;;;;;;;;;5.00;5.00;;;;;;;;5118702;28;12810;-81
2022/08/11 14:39:27;;;;;;;;;5.00;5.00;;;;;;;;5120368;27;9472;-82
2022/08/11 14:47:23;;;;;;;;;3.50;3.50;;;;;;;;5118006;28;8774;-80
2022/08/11 14:49:50;;;;;;;;;4.00;4.00;;;;;;;;5124004;27;11810;-82
2022/08/11 14:52:17;;;;;;;;;2.25;2.25;;;;;;;;5119021;28;13814;-85
